createdAt,value
2019-01-17T00:00:04.936Z,76.38
2019-01-17T00:02:54.881Z,76.66
2019-01-17T00:05:44.424Z,76.75
2019-01-17T00:08:31.503Z,76.83
2019-01-17T00:11:15.068Z,76.93
2019-01-17T00:14:02.603Z,76.68
2019-01-17T00:16:51.761Z,76.75
2019-01-17T00:19:54.920Z,76.87
2019-01-17T00:22:52.419Z,76.99
2019-01-17T00:25:41.379Z,76.95
2019-01-17T00:28:47.121Z,76.81
2019-01-17T00:31:26.666Z,76.80
2019-01-17T00:34:17.472Z,77.22
2019-01-17T00:36:58.236Z,77.73
2019-01-17T00:39:47.340Z,78.21
2019-01-17T00:42:41.212Z,78.16
2019-01-17T00:45:32.077Z,78.14
2019-01-17T00:48:19.932Z,78.62
2019-01-17T00:51:13.866Z,78.09
2019-01-17T00:54:00.099Z,77.71
2019-01-17T00:56:49.518Z,77.87
2019-01-17T00:59:28.324Z,77.88
2019-01-17T01:02:17.779Z,77.92
2019-01-17T01:05:20.737Z,77.95
2019-01-17T01:08:09.799Z,78.14
2019-01-17T01:11:13.033Z,78.20
2019-01-17T01:14:09.742Z,77.92
2019-01-17T01:17:10.908Z,78.46
2019-01-17T01:20:00.449Z,78.95
2019-01-17T01:22:43.073Z,79.00
2019-01-17T01:25:32.668Z,79.61
2019-01-17T01:28:24.809Z,79.51
2019-01-17T01:31:05.783Z,79.55
2019-01-17T01:34:09.090Z,79.63
2019-01-17T01:36:54.450Z,80.07
2019-01-17T01:39:51.278Z,80.75
2019-01-17T01:42:40.577Z,81.68
2019-01-17T01:45:29.480Z,81.98
2019-01-17T01:48:19.009Z,81.96
2019-01-17T01:51:11.414Z,82.78
2019-01-17T01:53:43.341Z,82.66
2019-01-17T01:56:15.252Z,80.84
2019-01-17T01:58:47.021Z,80.96
2019-01-17T02:01:18.984Z,81.25
2019-01-17T02:03:50.706Z,80.80
2019-01-17T02:06:22.565Z,81.19
2019-01-17T02:08:54.475Z,80.42
2019-01-17T02:11:26.405Z,79.80
2019-01-17T02:13:58.860Z,79.55
2019-01-17T02:16:30.688Z,78.79
2019-01-17T02:19:02.561Z,78.88
2019-01-17T02:21:34.586Z,79.37
2019-01-17T02:24:06.653Z,78.98
2019-01-17T02:26:39.544Z,79.08
2019-01-17T02:29:11.374Z,78.53
2019-01-17T02:31:43.151Z,78.77
2019-01-17T02:34:14.865Z,78.57
2019-01-17T02:36:46.571Z,78.03
2019-01-17T02:39:18.431Z,78.05
2019-01-17T02:41:50.288Z,77.72
2019-01-17T02:44:22.001Z,78.04
2019-01-17T02:46:53.777Z,78.05
2019-01-17T02:49:25.498Z,78.29
2019-01-17T02:51:57.525Z,78.41
2019-01-17T02:54:35.612Z,78.33
2019-01-17T02:57:02.713Z,78.43
2019-01-17T02:59:34.460Z,78.16
2019-01-17T03:02:06.378Z,78.51
2019-01-17T03:04:38.222Z,78.33
2019-01-17T03:07:10.173Z,78.28
2019-01-17T03:09:41.959Z,78.75
2019-01-17T03:12:13.810Z,78.92
2019-01-17T03:14:45.587Z,78.96
2019-01-17T03:17:18.258Z,79.09
2019-01-17T03:19:50.016Z,79.02
2019-01-17T03:22:21.710Z,78.52
2019-01-17T03:24:53.494Z,78.31
2019-01-17T03:27:25.508Z,78.03
2019-01-17T03:29:57.656Z,77.98
2019-01-17T03:32:29.843Z,77.96
2019-01-17T03:35:01.659Z,78.16
2019-01-17T03:37:33.453Z,78.09
2019-01-17T03:40:06.404Z,77.95
2019-01-17T03:42:38.282Z,77.98
2019-01-17T03:45:11.864Z,77.73
2019-01-17T03:47:43.808Z,77.92
2019-01-17T03:50:16.685Z,78.29
2019-01-17T03:52:48.634Z,78.54
2019-01-17T03:55:22.789Z,78.78
2019-01-17T03:57:54.719Z,79.05
2019-01-17T04:00:26.650Z,78.87
2019-01-17T04:02:58.570Z,78.60
2019-01-17T04:05:30.420Z,78.87
2019-01-17T04:08:02.172Z,78.45
2019-01-17T04:10:34.007Z,78.39
2019-01-17T04:13:05.898Z,78.47
2019-01-17T04:15:37.816Z,78.33
2019-01-17T04:18:10.508Z,78.33
2019-01-17T04:20:42.360Z,78.44
2019-01-17T04:23:14.317Z,78.28
2019-01-17T04:25:46.447Z,78.18
2019-01-17T04:28:18.270Z,78.87
2019-01-17T04:30:50.113Z,78.65
2019-01-17T04:33:22.227Z,78.77
2019-01-17T04:35:54.067Z,78.72
2019-01-17T04:38:25.895Z,79.26
2019-01-17T04:40:57.809Z,79.53
2019-01-17T04:43:29.988Z,79.74
2019-01-17T04:46:01.849Z,79.90
2019-01-17T04:48:33.812Z,80.08
2019-01-17T04:51:05.746Z,80.25
2019-01-17T04:53:40.647Z,80.30
2019-01-17T04:56:12.579Z,80.56
2019-01-17T04:58:46.535Z,80.79
2019-01-17T05:01:19.410Z,80.87
2019-01-17T05:03:51.345Z,80.88
2019-01-17T05:06:23.313Z,80.81
2019-01-17T05:08:55.397Z,80.79
2019-01-17T05:11:27.311Z,80.76
2019-01-17T05:13:59.109Z,80.46
2019-01-17T05:16:31.193Z,80.10
2019-01-17T05:19:03.282Z,80.32
2019-01-17T05:21:35.059Z,80.42
2019-01-17T05:24:07.024Z,80.39
2019-01-17T05:26:39.136Z,80.46
2019-01-17T05:29:10.979Z,80.98
2019-01-17T05:31:42.820Z,80.88
2019-01-17T05:34:14.956Z,80.89
2019-01-17T05:36:47.137Z,80.57
2019-01-17T05:39:19.063Z,80.41
2019-01-17T05:41:51.087Z,80.42
2019-01-17T05:44:22.998Z,80.34
2019-01-17T05:46:54.760Z,80.09
2019-01-17T05:49:26.591Z,79.80
2019-01-17T05:51:58.735Z,79.72
2019-01-17T05:54:30.514Z,79.74
2019-01-17T05:57:02.351Z,79.69
2019-01-17T05:59:34.383Z,79.70
2019-01-17T06:02:06.290Z,79.67
2019-01-17T06:04:38.236Z,79.66
2019-01-17T06:07:10.185Z,79.33
2019-01-17T06:09:41.941Z,79.35
2019-01-17T06:12:13.778Z,79.42
2019-01-17T06:14:45.670Z,78.99
2019-01-17T06:17:17.510Z,79.18
2019-01-17T06:19:49.431Z,79.22
2019-01-17T06:22:21.631Z,79.11
2019-01-17T06:24:53.490Z,79.64
2019-01-17T06:27:25.560Z,79.40
2019-01-17T06:29:57.395Z,79.49
2019-01-17T06:32:30.274Z,79.25
2019-01-17T06:35:02.649Z,79.21
2019-01-17T06:37:35.323Z,79.11
2019-01-17T06:40:13.035Z,79.39
2019-01-17T06:42:45.276Z,79.44
2019-01-17T06:45:17.178Z,79.45
2019-01-17T06:47:49.158Z,79.07
2019-01-17T06:50:21.054Z,79.27
2019-01-17T06:52:53.221Z,79.09
2019-01-17T06:55:25.063Z,78.79
2019-01-17T06:57:56.797Z,79.15
2019-01-17T07:00:29.062Z,78.75
2019-01-17T07:03:01.305Z,78.79
2019-01-17T07:05:33.049Z,78.63
2019-01-17T07:08:05.031Z,79.00
2019-01-17T07:10:36.932Z,78.88
2019-01-17T07:13:09.324Z,79.33
2019-01-17T07:15:41.340Z,79.41
2019-01-17T07:18:13.250Z,79.32
2019-01-17T07:20:45.421Z,79.76
2019-01-17T07:23:17.559Z,79.58
2019-01-17T07:25:49.517Z,80.15
2019-01-17T07:28:21.606Z,80.28
2019-01-17T07:30:53.499Z,80.95
2019-01-17T07:33:25.443Z,81.22
2019-01-17T07:35:57.373Z,81.50
2019-01-17T07:38:29.295Z,81.52
2019-01-17T07:41:01.227Z,82.22
2019-01-17T07:43:33.196Z,82.40
2019-01-17T07:46:06.224Z,83.41
2019-01-17T07:48:38.191Z,83.65
2019-01-17T07:51:10.554Z,84.67
2019-01-17T07:53:42.392Z,84.94
2019-01-17T07:56:14.324Z,85.40
2019-01-17T07:58:46.274Z,85.69
2019-01-17T08:01:18.512Z,85.94
2019-01-17T08:03:50.348Z,85.92
2019-01-17T08:06:22.493Z,86.08
2019-01-17T08:08:54.409Z,85.86
2019-01-17T08:11:26.268Z,85.72
2019-01-17T08:13:58.181Z,86.20
2019-01-17T08:16:30.091Z,85.80
2019-01-17T08:19:02.002Z,85.72
2019-01-17T08:21:33.824Z,86.08
2019-01-17T08:24:05.953Z,86.15
2019-01-17T08:26:37.935Z,85.92
2019-01-17T08:29:09.857Z,86.25
2019-01-17T08:31:41.774Z,85.69
2019-01-17T08:34:13.728Z,85.82
2019-01-17T08:36:45.697Z,85.85
2019-01-17T08:39:17.507Z,86.14
2019-01-17T08:41:49.346Z,86.19
2019-01-17T08:44:21.462Z,86.37
2019-01-17T08:46:53.358Z,86.58
2019-01-17T08:49:25.293Z,86.56
2019-01-17T08:51:57.220Z,86.37
2019-01-17T08:54:29.353Z,86.47
2019-01-17T08:57:01.363Z,86.40
2019-01-17T08:59:33.142Z,86.37
2019-01-17T09:02:05.242Z,86.37
2019-01-17T09:04:37.150Z,86.59
2019-01-17T09:07:09.327Z,86.62
2019-01-17T09:09:41.584Z,87.37
2019-01-17T09:12:13.411Z,87.19
2019-01-17T09:14:45.315Z,87.44
2019-01-17T09:17:17.226Z,87.21
2019-01-17T09:19:48.995Z,87.19
2019-01-17T09:22:20.833Z,87.67
2019-01-17T09:24:52.670Z,87.49
2019-01-17T09:27:24.553Z,87.28
2019-01-17T09:29:56.422Z,87.75
2019-01-17T09:32:28.347Z,87.80
2019-01-17T09:35:00.239Z,87.78
2019-01-17T09:37:32.072Z,87.30
2019-01-17T09:40:04.093Z,87.66
2019-01-17T09:42:35.868Z,87.76
2019-01-17T09:45:08.533Z,87.00
2019-01-17T09:47:40.512Z,87.15
2019-01-17T09:50:22.405Z,87.19
2019-01-17T09:52:54.427Z,87.07
2019-01-17T09:55:26.523Z,86.47
2019-01-17T09:57:58.347Z,86.62
2019-01-17T10:00:32.211Z,85.88
2019-01-17T10:03:04.716Z,85.61
2019-01-17T10:05:36.891Z,85.40
2019-01-17T10:08:10.050Z,84.75
2019-01-17T10:10:41.964Z,84.83
2019-01-17T10:13:13.794Z,84.13
2019-01-17T10:15:58.255Z,84.57
2019-01-17T10:19:35.464Z,83.92
2019-01-17T10:23:01.272Z,83.90
2019-01-17T10:26:22.903Z,83.84
2019-01-17T10:29:51.042Z,83.46
2019-01-17T10:32:59.225Z,83.48
2019-01-17T10:35:50.439Z,83.43
2019-01-17T10:39:08.025Z,83.56
2019-01-17T10:42:31.898Z,81.91
2019-01-17T10:45:59.459Z,81.68
2019-01-17T10:49:55.448Z,81.81
2019-01-17T10:53:18.506Z,82.01
2019-01-17T10:56:58.186Z,81.75
2019-01-17T11:00:13.353Z,81.11
2019-01-17T11:03:39.099Z,82.68
2019-01-17T11:06:56.417Z,81.93
2019-01-17T11:10:13.317Z,81.71
2019-01-17T11:13:47.898Z,81.70
2019-01-17T11:17:21.516Z,82.39
2019-01-17T11:20:40.890Z,82.89
2019-01-17T11:23:58.263Z,82.81
2019-01-17T11:27:26.055Z,83.45
2019-01-17T11:30:33.485Z,83.49
2019-01-17T11:34:23.644Z,83.95
2019-01-17T11:37:46.916Z,84.65
2019-01-17T11:41:03.132Z,85.09
2019-01-17T11:44:22.260Z,85.33
2019-01-17T11:47:46.249Z,85.88
2019-01-17T11:51:07.963Z,86.42
2019-01-17T11:54:11.821Z,86.92
2019-01-17T11:57:32.317Z,87.51
2019-01-17T12:01:12.281Z,87.50
2019-01-17T12:04:30.492Z,87.75
2019-01-17T12:07:09.749Z,87.67
2019-01-17T12:09:41.582Z,87.68
2019-01-17T12:12:16.402Z,88.31
2019-01-17T12:14:48.491Z,87.86
2019-01-17T12:17:20.315Z,87.24
2019-01-17T12:19:52.147Z,86.94
2019-01-17T12:22:24.818Z,88.89
2019-01-17T12:24:56.719Z,89.55
2019-01-17T12:27:28.563Z,91.03
2019-01-17T12:30:00.586Z,91.05
2019-01-17T12:32:32.340Z,91.83
2019-01-17T12:35:04.535Z,92.24
2019-01-17T12:37:36.400Z,91.07
2019-01-17T12:40:10.959Z,90.63
2019-01-17T12:42:42.853Z,91.24
2019-01-17T12:45:15.071Z,91.50
2019-01-17T12:47:46.918Z,90.57
2019-01-17T12:50:20.388Z,91.18
2019-01-17T12:52:52.152Z,89.91
2019-01-17T12:55:24.172Z,89.46
2019-01-17T12:57:56.484Z,89.63
2019-01-17T13:00:28.771Z,89.54
2019-01-17T13:03:00.823Z,87.93
2019-01-17T13:05:32.823Z,88.95
2019-01-17T13:08:04.834Z,88.28
2019-01-17T13:10:36.836Z,89.07
2019-01-17T13:13:08.675Z,87.75
2019-01-17T13:15:40.600Z,87.59
2019-01-17T13:18:12.357Z,87.27
2019-01-17T13:20:44.619Z,87.47
2019-01-17T13:23:16.536Z,86.47
2019-01-17T13:25:48.556Z,86.59
2019-01-17T13:28:20.750Z,85.57
2019-01-17T13:30:52.614Z,85.44
2019-01-17T13:33:24.520Z,84.71
2019-01-17T13:35:56.291Z,85.45
2019-01-17T13:38:28.385Z,85.17
2019-01-17T13:41:00.567Z,84.99
2019-01-17T13:43:32.488Z,83.06
2019-01-17T13:46:04.407Z,83.46
2019-01-17T13:48:36.391Z,83.74
2019-01-17T13:51:08.399Z,82.85
2019-01-17T13:53:40.405Z,82.66
2019-01-17T13:56:12.325Z,83.44
2019-01-17T13:58:44.234Z,82.23
2019-01-17T14:01:16.076Z,82.79
2019-01-17T14:03:47.920Z,82.08
2019-01-17T14:06:19.833Z,81.47
2019-01-17T14:08:51.597Z,81.62
2019-01-17T14:11:23.463Z,80.91
2019-01-17T14:13:55.427Z,80.73
2019-01-17T14:16:27.448Z,79.46
2019-01-17T14:18:59.283Z,79.31
2019-01-17T14:21:31.126Z,77.68
2019-01-17T14:24:02.953Z,77.49
2019-01-17T14:26:34.840Z,74.81
2019-01-17T14:29:06.755Z,74.12
2019-01-17T14:31:38.601Z,74.48
2019-01-17T14:34:10.435Z,74.72
2019-01-17T14:36:42.364Z,74.80
2019-01-17T14:39:14.201Z,75.29
2019-01-17T14:41:46.055Z,75.60
2019-01-17T14:44:17.820Z,75.51
2019-01-17T14:46:49.742Z,75.69
2019-01-17T14:49:21.593Z,75.19
2019-01-17T14:51:53.512Z,74.56
2019-01-17T14:54:25.647Z,75.51
2019-01-17T14:56:57.496Z,74.70
2019-01-17T14:59:29.420Z,75.74
2019-01-17T15:02:02.244Z,76.29
2019-01-17T15:04:34.151Z,77.37
2019-01-17T15:07:06.058Z,75.74
2019-01-17T15:09:37.908Z,75.36
2019-01-17T15:12:10.159Z,74.80
2019-01-17T15:14:41.994Z,74.35
2019-01-17T15:17:13.835Z,76.58
2019-01-17T15:19:45.765Z,77.09
2019-01-17T15:22:17.619Z,78.19
2019-01-17T15:24:49.382Z,77.39
2019-01-17T15:27:27.158Z,77.65
2019-01-17T15:29:54.747Z,77.01
2019-01-17T15:32:26.677Z,77.25
2019-01-17T15:34:58.602Z,77.32
2019-01-17T15:37:30.453Z,77.07
2019-01-17T15:40:02.364Z,76.87
2019-01-17T15:42:34.493Z,77.52
2019-01-17T15:45:07.509Z,78.04
2019-01-17T15:47:39.441Z,78.12
2019-01-17T15:50:11.874Z,78.04
2019-01-17T15:52:43.789Z,79.03
2019-01-17T15:55:15.966Z,79.02
2019-01-17T15:57:47.906Z,79.68
2019-01-17T16:00:28.832Z,79.26
2019-01-17T16:03:00.959Z,79.64
2019-01-17T16:05:32.869Z,79.08
2019-01-17T16:08:04.727Z,78.82
2019-01-17T16:10:36.607Z,79.20
2019-01-17T16:13:08.405Z,80.20
2019-01-17T16:15:40.307Z,81.51
2019-01-17T16:18:12.109Z,82.01
2019-01-17T16:20:43.953Z,82.41
2019-01-17T16:23:15.885Z,82.27
2019-01-17T16:25:47.987Z,82.67
2019-01-17T16:28:20.076Z,82.59
2019-01-17T16:30:51.975Z,82.40
2019-01-17T16:33:23.904Z,83.41
2019-01-17T16:35:56.031Z,83.87
2019-01-17T16:38:28.210Z,82.88
2019-01-17T16:40:59.971Z,83.57
2019-01-17T16:43:31.876Z,83.06
2019-01-17T16:46:03.802Z,82.30
2019-01-17T16:48:35.647Z,81.62
2019-01-17T16:51:07.572Z,81.70
2019-01-17T16:53:39.367Z,80.06
2019-01-17T16:56:11.211Z,79.30
2019-01-17T16:58:43.066Z,79.29
2019-01-17T17:01:14.825Z,79.47
2019-01-17T17:03:46.610Z,79.72
2019-01-17T17:06:18.610Z,78.49
2019-01-17T17:08:50.461Z,77.08
2019-01-17T17:11:22.230Z,76.70
2019-01-17T17:13:54.092Z,76.13
2019-01-17T17:16:26.211Z,75.98
2019-01-17T17:18:58.376Z,75.74
2019-01-17T17:21:30.300Z,75.49
2019-01-17T17:24:02.318Z,75.55
2019-01-17T17:26:34.374Z,76.20
2019-01-17T17:29:06.464Z,76.19
2019-01-17T17:31:38.597Z,75.61
2019-01-17T17:34:10.571Z,75.89
2019-01-17T17:36:42.403Z,75.77
2019-01-17T17:39:14.440Z,76.18
2019-01-17T17:41:46.652Z,75.83
2019-01-17T17:44:18.796Z,76.26
2019-01-17T17:46:50.950Z,76.11
2019-01-17T17:49:22.860Z,76.72
2019-01-17T17:51:54.963Z,77.15
2019-01-17T17:54:26.738Z,78.64
2019-01-17T17:56:58.650Z,80.08
2019-01-17T17:59:30.426Z,80.95
2019-01-17T18:02:05.856Z,83.76
2019-01-17T18:04:37.890Z,85.28
2019-01-17T18:07:09.897Z,86.73
2019-01-17T18:09:41.928Z,87.33
2019-01-17T18:12:13.710Z,88.23
2019-01-17T18:14:45.722Z,89.12
2019-01-17T18:17:17.806Z,90.15
2019-01-17T18:19:50.097Z,89.22
2019-01-17T18:22:22.112Z,89.40
2019-01-17T18:24:53.956Z,89.73
2019-01-17T18:27:26.116Z,89.21
2019-01-17T18:29:58.065Z,89.30
2019-01-17T18:32:30.047Z,89.20
2019-01-17T18:35:01.995Z,89.47
2019-01-17T18:37:34.095Z,87.13
2019-01-17T18:40:08.930Z,88.11
2019-01-17T18:42:40.840Z,89.27
2019-01-17T18:45:15.950Z,89.96
2019-01-17T18:47:48.139Z,90.43
2019-01-17T18:50:23.803Z,90.65
2019-01-17T18:52:55.714Z,90.10
2019-01-17T18:55:27.964Z,90.32
2019-01-17T18:58:00.160Z,90.85
2019-01-17T19:00:32.864Z,91.48
2019-01-17T19:03:04.919Z,91.90
2019-01-17T19:05:36.875Z,92.31
2019-01-17T19:08:09.986Z,92.91
2019-01-17T19:10:42.356Z,93.11
2019-01-17T19:13:14.375Z,93.59
2019-01-17T19:15:46.355Z,93.50
2019-01-17T19:18:18.806Z,93.04
2019-01-17T19:20:50.744Z,93.07
2019-01-17T19:23:22.784Z,92.29
2019-01-17T19:25:54.871Z,91.87
2019-01-17T19:28:26.746Z,91.02
2019-01-17T19:30:58.666Z,90.79
2019-01-17T19:33:30.721Z,91.12
2019-01-17T19:36:02.753Z,91.35
2019-01-17T19:38:34.726Z,90.98
2019-01-17T19:41:07.037Z,90.45
2019-01-17T19:43:39.127Z,89.69
2019-01-17T19:46:11.166Z,88.93
2019-01-17T19:48:43.369Z,88.92
2019-01-17T19:51:15.292Z,88.81
2019-01-17T19:53:48.202Z,88.72
2019-01-17T19:56:20.210Z,88.45
2019-01-17T19:58:52.185Z,89.26
2019-01-17T20:01:25.396Z,88.77
2019-01-17T20:03:57.322Z,89.01
2019-01-17T20:06:29.163Z,88.84
2019-01-17T20:09:01.104Z,88.76
2019-01-17T20:11:34.376Z,88.75
2019-01-17T20:14:06.393Z,87.75
2019-01-17T20:16:38.244Z,88.59
2019-01-17T20:19:10.091Z,88.18
2019-01-17T20:21:41.913Z,88.77
2019-01-17T20:24:14.835Z,89.36
2019-01-17T20:26:46.734Z,88.29
2019-01-17T20:29:19.116Z,88.44
2019-01-17T20:31:51.207Z,88.81
2019-01-17T20:34:23.074Z,87.83
2019-01-17T20:36:54.989Z,88.13
2019-01-17T20:39:26.834Z,87.86
2019-01-17T20:41:58.651Z,87.95
2019-01-17T20:44:30.581Z,87.48
2019-01-17T20:47:02.481Z,86.79
2019-01-17T20:49:34.389Z,85.19
2019-01-17T20:52:06.238Z,86.18
2019-01-17T20:54:38.094Z,86.45
2019-01-17T20:57:11.056Z,86.56
2019-01-17T20:59:42.918Z,86.72
2019-01-17T21:02:20.693Z,86.81
2019-01-17T21:04:53.815Z,87.39
2019-01-17T21:07:25.892Z,86.99
2019-01-17T21:09:57.653Z,87.79
2019-01-17T21:12:29.719Z,88.70
2019-01-17T21:15:01.876Z,89.13
2019-01-17T21:17:33.833Z,88.98
2019-01-17T21:20:06.722Z,89.14
2019-01-17T21:22:39.628Z,89.17
2019-01-17T21:25:15.216Z,89.99
2019-01-17T21:27:47.115Z,90.82
2019-01-17T21:30:23.679Z,91.11
2019-01-17T21:32:55.493Z,91.37
2019-01-17T21:35:27.406Z,91.20
2019-01-17T21:37:59.645Z,92.21
2019-01-17T21:40:31.513Z,90.80
2019-01-17T21:43:03.516Z,91.17
2019-01-17T21:45:35.364Z,92.09
2019-01-17T21:48:07.251Z,91.95
2019-01-17T21:50:39.431Z,92.42
2019-01-17T21:53:11.614Z,92.08
2019-01-17T21:55:43.691Z,92.14
2019-01-17T21:58:15.565Z,92.35
2019-01-17T22:00:47.343Z,91.80
2019-01-17T22:03:19.188Z,91.18
2019-01-17T22:05:51.024Z,90.38
2019-01-17T22:08:22.854Z,90.70
2019-01-17T22:10:54.826Z,91.28
2019-01-17T22:13:26.679Z,91.79
2019-01-17T22:15:58.868Z,92.08
2019-01-17T22:18:30.719Z,92.28
2019-01-17T22:21:02.485Z,92.40
2019-01-17T22:23:35.520Z,92.30
2019-01-17T22:26:07.438Z,93.27
2019-01-17T22:28:39.259Z,93.09
2019-01-17T22:31:11.038Z,93.56
2019-01-17T22:33:42.857Z,93.16
2019-01-17T22:36:15.725Z,93.04
2019-01-17T22:38:47.570Z,91.17
2019-01-17T22:41:19.488Z,90.82
2019-01-17T22:43:51.595Z,90.77
2019-01-17T22:46:23.356Z,90.49
2019-01-17T22:48:55.200Z,89.98
2019-01-17T22:51:27.026Z,89.74
2019-01-17T22:53:59.100Z,89.22
2019-01-17T22:56:31.364Z,88.06
2019-01-17T22:59:09.104Z,88.44
2019-01-17T23:01:36.937Z,85.61
2019-01-17T23:04:08.993Z,86.51
2019-01-17T23:06:40.850Z,86.89
2019-01-17T23:09:12.677Z,85.08
2019-01-17T23:11:44.522Z,85.67
2019-01-17T23:14:16.500Z,85.42
2019-01-17T23:16:48.492Z,84.72
2019-01-17T23:19:20.266Z,84.51
2019-01-17T23:21:52.446Z,84.87
2019-01-17T23:24:24.271Z,84.85
2019-01-17T23:26:56.128Z,85.14
2019-01-17T23:29:28.170Z,84.42
2019-01-17T23:31:59.941Z,84.29
2019-01-17T23:34:32.133Z,84.38
2019-01-17T23:37:04.138Z,83.96
2019-01-17T23:39:35.894Z,84.08
2019-01-17T23:42:07.819Z,83.67
2019-01-17T23:44:39.650Z,83.67
2019-01-17T23:47:11.641Z,83.76
2019-01-17T23:49:43.769Z,83.06
2019-01-17T23:52:15.633Z,83.15
2019-01-17T23:54:47.667Z,83.97
2019-01-17T23:57:19.516Z,84.25
2019-01-17T23:59:51.321Z,83.66
